sensor_id;sensor_type;location;lat;lon;timestamp;temperature;humidity
76293;DHT22;67256;51.154;4.164;2023-07-13T00:00:25;20.70;59.60
76293;DHT22;67256;51.154;4.164;2023-07-13T00:02:51;20.50;60.20
76293;DHT22;67256;51.154;4.164;2023-07-13T00:05:22;20.50;60.20
76293;DHT22;67256;51.154;4.164;2023-07-13T00:07:50;20.60;60.30
76293;DHT22;67256;51.154;4.164;2023-07-13T00:10:16;20.60;60.10
76293;DHT22;67256;51.154;4.164;2023-07-13T00:12:43;20.60;60.20
76293;DHT22;67256;51.154;4.164;2023-07-13T00:15:17;20.50;60.60
76293;DHT22;67256;51.154;4.164;2023-07-13T00:17:52;20.50;60.70
76293;DHT22;67256;51.154;4.164;2023-07-13T00:20:19;20.40;61.00
76293;DHT22;67256;51.154;4.164;2023-07-13T00:22:48;20.40;61.20
76293;DHT22;67256;51.154;4.164;2023-07-13T00:25:14;20.40;61.30
76293;DHT22;67256;51.154;4.164;2023-07-13T00:27:41;20.40;61.40
76293;DHT22;67256;51.154;4.164;2023-07-13T00:30:07;20.40;61.60
76293;DHT22;67256;51.154;4.164;2023-07-13T00:32:34;20.30;61.80
76293;DHT22;67256;51.154;4.164;2023-07-13T00:35:01;20.30;61.90
76293;DHT22;67256;51.154;4.164;2023-07-13T00:37:26;20.30;62.00
76293;DHT22;67256;51.154;4.164;2023-07-13T00:39:52;20.40;62.10
76293;DHT22;67256;51.154;4.164;2023-07-13T00:42:18;20.40;61.60
76293;DHT22;67256;51.154;4.164;2023-07-13T00:45:07;20.30;61.90
76293;DHT22;67256;51.154;4.164;2023-07-13T00:47:33;20.20;62.50
76293;DHT22;67256;51.154;4.164;2023-07-13T00:50:00;20.20;62.60
76293;DHT22;67256;51.154;4.164;2023-07-13T00:52:26;20.20;62.70
76293;DHT22;67256;51.154;4.164;2023-07-13T00:54:54;20.20;62.60
76293;DHT22;67256;51.154;4.164;2023-07-13T00:57:20;20.10;62.90
76293;DHT22;67256;51.154;4.164;2023-07-13T00:59:52;19.90;63.70
76293;DHT22;67256;51.154;4.164;2023-07-13T01:02:20;19.90;63.60
76293;DHT22;67256;51.154;4.164;2023-07-13T01:04:48;20.00;63.60
76293;DHT22;67256;51.154;4.164;2023-07-13T01:07:14;20.10;63.30
76293;DHT22;67256;51.154;4.164;2023-07-13T01:09:40;20.00;63.40
76293;DHT22;67256;51.154;4.164;2023-07-13T01:12:07;20.10;63.40
76293;DHT22;67256;51.154;4.164;2023-07-13T01:14:33;20.10;63.10
76293;DHT22;67256;51.154;4.164;2023-07-13T01:16:59;20.10;63.40
76293;DHT22;67256;51.154;4.164;2023-07-13T01:19:44;20.20;63.30
76293;DHT22;67256;51.154;4.164;2023-07-13T01:22:12;20.20;62.90
76293;DHT22;67256;51.154;4.164;2023-07-13T01:24:40;20.10;63.40
76293;DHT22;67256;51.154;4.164;2023-07-13T01:27:08;20.00;63.60
76293;DHT22;67256;51.154;4.164;2023-07-13T01:29:36;20.10;63.70
76293;DHT22;67256;51.154;4.164;2023-07-13T01:32:09;20.10;63.50
76293;DHT22;67256;51.154;4.164;2023-07-13T01:34:36;20.10;63.70
76293;DHT22;67256;51.154;4.164;2023-07-13T01:37:03;20.00;64.00
76293;DHT22;67256;51.154;4.164;2023-07-13T01:39:30;20.00;64.00
76293;DHT22;67256;51.154;4.164;2023-07-13T01:41:57;20.00;64.10
76293;DHT22;67256;51.154;4.164;2023-07-13T01:44:22;19.90;64.80
76293;DHT22;67256;51.154;4.164;2023-07-13T01:46:48;19.90;64.70
76293;DHT22;67256;51.154;4.164;2023-07-13T01:49:14;19.90;64.70
76293;DHT22;67256;51.154;4.164;2023-07-13T01:51:40;19.90;64.70
76293;DHT22;67256;51.154;4.164;2023-07-13T01:54:06;20.00;64.50
76293;DHT22;67256;51.154;4.164;2023-07-13T01:56:31;20.00;64.50
76293;DHT22;67256;51.154;4.164;2023-07-13T01:58:57;19.90;64.50
76293;DHT22;67256;51.154;4.164;2023-07-13T02:01:23;19.90;64.80
76293;DHT22;67256;51.154;4.164;2023-07-13T02:03:48;19.90;65.20
76293;DHT22;67256;51.154;4.164;2023-07-13T02:06:14;19.90;64.90
76293;DHT22;67256;51.154;4.164;2023-07-13T02:08:41;19.80;65.50
76293;DHT22;67256;51.154;4.164;2023-07-13T02:11:07;19.70;65.80
76293;DHT22;67256;51.154;4.164;2023-07-13T02:13:33;19.70;65.80
76293;DHT22;67256;51.154;4.164;2023-07-13T02:15:58;19.80;65.60
76293;DHT22;67256;51.154;4.164;2023-07-13T02:18:24;19.80;65.60
76293;DHT22;67256;51.154;4.164;2023-07-13T02:20:50;19.70;65.60
76293;DHT22;67256;51.154;4.164;2023-07-13T02:23:16;19.80;65.50
76293;DHT22;67256;51.154;4.164;2023-07-13T02:25:41;19.80;65.40
76293;DHT22;67256;51.154;4.164;2023-07-13T02:28:07;19.90;65.20
76293;DHT22;67256;51.154;4.164;2023-07-13T02:30:34;19.80;65.20
76293;DHT22;67256;51.154;4.164;2023-07-13T02:33:01;19.90;65.10
76293;DHT22;67256;51.154;4.164;2023-07-13T02:35:26;19.80;65.30
76293;DHT22;67256;51.154;4.164;2023-07-13T02:37:52;19.70;65.70
76293;DHT22;67256;51.154;4.164;2023-07-13T02:40:18;19.60;65.90
76293;DHT22;67256;51.154;4.164;2023-07-13T02:42:43;19.70;65.90
76293;DHT22;67256;51.154;4.164;2023-07-13T02:45:09;19.70;65.80
76293;DHT22;67256;51.154;4.164;2023-07-13T02:47:36;19.70;65.90
76293;DHT22;67256;51.154;4.164;2023-07-13T02:50:02;19.80;65.60
76293;DHT22;67256;51.154;4.164;2023-07-13T02:52:28;19.70;65.90
76293;DHT22;67256;51.154;4.164;2023-07-13T02:54:53;19.80;65.50
76293;DHT22;67256;51.154;4.164;2023-07-13T02:57:19;19.90;65.40
76293;DHT22;67256;51.154;4.164;2023-07-13T02:59:45;19.90;65.70
76293;DHT22;67256;51.154;4.164;2023-07-13T03:02:11;19.90;65.40
76293;DHT22;67256;51.154;4.164;2023-07-13T03:04:37;19.90;65.20
76293;DHT22;67256;51.154;4.164;2023-07-13T03:07:03;19.90;65.50
76293;DHT22;67256;51.154;4.164;2023-07-13T03:09:29;19.80;66.00
76293;DHT22;67256;51.154;4.164;2023-07-13T03:11:56;19.80;66.20
76293;DHT22;67256;51.154;4.164;2023-07-13T03:14:22;19.80;66.30
76293;DHT22;67256;51.154;4.164;2023-07-13T03:16:48;19.60;66.80
76293;DHT22;67256;51.154;4.164;2023-07-13T03:19:14;19.60;67.10
76293;DHT22;67256;51.154;4.164;2023-07-13T03:21:40;19.60;66.90
76293;DHT22;67256;51.154;4.164;2023-07-13T03:24:05;19.70;66.70
76293;DHT22;67256;51.154;4.164;2023-07-13T03:26:31;19.60;66.70
76293;DHT22;67256;51.154;4.164;2023-07-13T03:28:57;19.70;66.80
76293;DHT22;67256;51.154;4.164;2023-07-13T03:31:26;19.60;66.70
76293;DHT22;67256;51.154;4.164;2023-07-13T03:33:54;19.60;67.00
76293;DHT22;67256;51.154;4.164;2023-07-13T03:36:23;19.70;66.80
76293;DHT22;67256;51.154;4.164;2023-07-13T03:38:50;19.70;67.00
76293;DHT22;67256;51.154;4.164;2023-07-13T03:41:17;19.50;67.50
76293;DHT22;67256;51.154;4.164;2023-07-13T03:43:43;19.60;67.40
76293;DHT22;67256;51.154;4.164;2023-07-13T03:46:09;19.60;67.50
76293;DHT22;67256;51.154;4.164;2023-07-13T03:48:35;19.70;67.10
76293;DHT22;67256;51.154;4.164;2023-07-13T03:51:01;19.80;66.90
76293;DHT22;67256;51.154;4.164;2023-07-13T03:53:27;19.70;67.10
76293;DHT22;67256;51.154;4.164;2023-07-13T03:55:53;19.70;67.10
76293;DHT22;67256;51.154;4.164;2023-07-13T04:00:51;19.70;67.10
76293;DHT22;67256;51.154;4.164;2023-07-13T04:03:17;19.70;67.30
76293;DHT22;67256;51.154;4.164;2023-07-13T04:05:43;19.60;67.50
76293;DHT22;67256;51.154;4.164;2023-07-13T04:08:08;19.70;67.60
76293;DHT22;67256;51.154;4.164;2023-07-13T04:10:34;19.70;67.30
76293;DHT22;67256;51.154;4.164;2023-07-13T04:13:00;19.60;67.80
76293;DHT22;67256;51.154;4.164;2023-07-13T04:15:28;19.60;68.00
76293;DHT22;67256;51.154;4.164;2023-07-13T04:17:54;19.70;67.70
76293;DHT22;67256;51.154;4.164;2023-07-13T04:20:20;19.70;67.50
76293;DHT22;67256;51.154;4.164;2023-07-13T04:22:47;19.80;67.00
76293;DHT22;67256;51.154;4.164;2023-07-13T04:25:13;20.00;66.80
76293;DHT22;67256;51.154;4.164;2023-07-13T04:27:38;20.00;66.70
76293;DHT22;67256;51.154;4.164;2023-07-13T04:30:05;19.90;66.90
76293;DHT22;67256;51.154;4.164;2023-07-13T04:32:32;19.90;67.10
76293;DHT22;67256;51.154;4.164;2023-07-13T04:34:58;19.80;67.50
76293;DHT22;67256;51.154;4.164;2023-07-13T04:37:25;19.90;67.20
76293;DHT22;67256;51.154;4.164;2023-07-13T04:39:51;20.00;67.10
76293;DHT22;67256;51.154;4.164;2023-07-13T04:42:17;19.90;67.30
76293;DHT22;67256;51.154;4.164;2023-07-13T04:44:50;19.80;67.90
76293;DHT22;67256;51.154;4.164;2023-07-13T04:47:17;20.00;67.50
76293;DHT22;67256;51.154;4.164;2023-07-13T04:49:44;20.00;67.50
76293;DHT22;67256;51.154;4.164;2023-07-13T04:52:10;20.00;67.00
76293;DHT22;67256;51.154;4.164;2023-07-13T04:54:35;20.10;66.90
76293;DHT22;67256;51.154;4.164;2023-07-13T04:57:05;20.10;66.70
76293;DHT22;67256;51.154;4.164;2023-07-13T04:59:32;20.10;67.00
76293;DHT22;67256;51.154;4.164;2023-07-13T05:01:58;20.10;66.60
76293;DHT22;67256;51.154;4.164;2023-07-13T05:04:24;20.20;67.00
76293;DHT22;67256;51.154;4.164;2023-07-13T05:06:49;20.20;66.50
76293;DHT22;67256;51.154;4.164;2023-07-13T05:09:15;20.20;66.70
76293;DHT22;67256;51.154;4.164;2023-07-13T05:11:43;20.20;66.80
76293;DHT22;67256;51.154;4.164;2023-07-13T05:14:08;20.20;66.70
76293;DHT22;67256;51.154;4.164;2023-07-13T05:16:35;20.10;66.60
76293;DHT22;67256;51.154;4.164;2023-07-13T05:19:01;20.20;66.60
76293;DHT22;67256;51.154;4.164;2023-07-13T05:21:27;20.20;66.70
76293;DHT22;67256;51.154;4.164;2023-07-13T05:23:53;20.20;66.80
76293;DHT22;67256;51.154;4.164;2023-07-13T05:26:18;20.30;67.10
76293;DHT22;67256;51.154;4.164;2023-07-13T05:28:46;20.30;66.40
76293;DHT22;67256;51.154;4.164;2023-07-13T05:31:12;20.20;66.40
76293;DHT22;67256;51.154;4.164;2023-07-13T05:33:38;20.20;66.50
76293;DHT22;67256;51.154;4.164;2023-07-13T05:36:04;20.20;66.70
76293;DHT22;67256;51.154;4.164;2023-07-13T05:38:30;20.30;66.60
76293;DHT22;67256;51.154;4.164;2023-07-13T05:40:57;20.10;67.20
76293;DHT22;67256;51.154;4.164;2023-07-13T05:43:23;20.10;67.10
76293;DHT22;67256;51.154;4.164;2023-07-13T05:45:50;20.10;67.50
76293;DHT22;67256;51.154;4.164;2023-07-13T05:48:16;20.20;67.00
76293;DHT22;67256;51.154;4.164;2023-07-13T05:50:42;20.20;67.20
76293;DHT22;67256;51.154;4.164;2023-07-13T05:53:08;20.20;67.10
76293;DHT22;67256;51.154;4.164;2023-07-13T05:55:34;20.20;67.00
76293;DHT22;67256;51.154;4.164;2023-07-13T05:58:00;20.10;67.40
76293;DHT22;67256;51.154;4.164;2023-07-13T06:00:26;20.20;67.20
76293;DHT22;67256;51.154;4.164;2023-07-13T06:02:52;20.30;67.00
76293;DHT22;67256;51.154;4.164;2023-07-13T06:05:18;20.30;66.90
76293;DHT22;67256;51.154;4.164;2023-07-13T06:07:43;20.30;66.90
76293;DHT22;67256;51.154;4.164;2023-07-13T06:10:09;20.30;67.30
76293;DHT22;67256;51.154;4.164;2023-07-13T06:12:35;20.30;67.10
76293;DHT22;67256;51.154;4.164;2023-07-13T06:15:01;20.40;66.70
76293;DHT22;67256;51.154;4.164;2023-07-13T06:17:26;20.50;66.80
76293;DHT22;67256;51.154;4.164;2023-07-13T06:19:53;20.40;66.90
76293;DHT22;67256;51.154;4.164;2023-07-13T06:22:18;20.50;66.50
76293;DHT22;67256;51.154;4.164;2023-07-13T06:24:44;20.50;66.40
76293;DHT22;67256;51.154;4.164;2023-07-13T06:27:10;20.60;66.50
76293;DHT22;67256;51.154;4.164;2023-07-13T06:29:35;20.70;65.80
76293;DHT22;67256;51.154;4.164;2023-07-13T06:32:02;20.80;65.80
76293;DHT22;67256;51.154;4.164;2023-07-13T06:34:27;20.90;65.60
76293;DHT22;67256;51.154;4.164;2023-07-13T06:36:53;21.00;65.40
76293;DHT22;67256;51.154;4.164;2023-07-13T06:39:19;21.10;64.80
76293;DHT22;67256;51.154;4.164;2023-07-13T06:41:44;21.10;65.00
76293;DHT22;67256;51.154;4.164;2023-07-13T06:44:10;21.20;64.60
76293;DHT22;67256;51.154;4.164;2023-07-13T06:46:36;21.10;65.40
76293;DHT22;67256;51.154;4.164;2023-07-13T06:49:01;21.10;65.30
76293;DHT22;67256;51.154;4.164;2023-07-13T06:51:27;21.10;65.10
76293;DHT22;67256;51.154;4.164;2023-07-13T06:53:53;21.40;64.60
76293;DHT22;67256;51.154;4.164;2023-07-13T06:56:19;21.50;64.40
76293;DHT22;67256;51.154;4.164;2023-07-13T06:58:45;21.20;64.70
76293;DHT22;67256;51.154;4.164;2023-07-13T07:01:11;21.20;65.30
76293;DHT22;67256;51.154;4.164;2023-07-13T07:03:37;21.30;65.10
76293;DHT22;67256;51.154;4.164;2023-07-13T07:06:13;21.30;65.20
76293;DHT22;67256;51.154;4.164;2023-07-13T07:08:40;21.20;65.40
76293;DHT22;67256;51.154;4.164;2023-07-13T07:11:12;21.30;65.10
76293;DHT22;67256;51.154;4.164;2023-07-13T07:13:38;21.30;65.10
76293;DHT22;67256;51.154;4.164;2023-07-13T07:16:04;21.40;64.80
76293;DHT22;67256;51.154;4.164;2023-07-13T07:18:30;21.30;65.00
76293;DHT22;67256;51.154;4.164;2023-07-13T07:20:55;21.20;65.40
76293;DHT22;67256;51.154;4.164;2023-07-13T07:23:22;21.20;65.20
76293;DHT22;67256;51.154;4.164;2023-07-13T07:25:48;21.30;65.60
76293;DHT22;67256;51.154;4.164;2023-07-13T07:28:16;21.10;65.80
76293;DHT22;67256;51.154;4.164;2023-07-13T07:30:45;21.20;65.80
76293;DHT22;67256;51.154;4.164;2023-07-13T07:33:11;21.10;66.00
76293;DHT22;67256;51.154;4.164;2023-07-13T07:35:37;21.00;66.60
76293;DHT22;67256;51.154;4.164;2023-07-13T07:38:03;21.00;66.80
76293;DHT22;67256;51.154;4.164;2023-07-13T07:40:29;21.00;66.40
76293;DHT22;67256;51.154;4.164;2023-07-13T07:42:55;21.10;66.10
76293;DHT22;67256;51.154;4.164;2023-07-13T07:45:21;21.10;66.00
76293;DHT22;67256;51.154;4.164;2023-07-13T07:47:47;21.30;66.10
76293;DHT22;67256;51.154;4.164;2023-07-13T07:50:13;21.30;65.60
76293;DHT22;67256;51.154;4.164;2023-07-13T07:52:39;21.30;65.50
76293;DHT22;67256;51.154;4.164;2023-07-13T07:55:06;21.30;65.70
76293;DHT22;67256;51.154;4.164;2023-07-13T07:57:32;21.20;65.80
76293;DHT22;67256;51.154;4.164;2023-07-13T07:59:58;21.20;66.40
76293;DHT22;67256;51.154;4.164;2023-07-13T08:02:25;21.30;65.40
76293;DHT22;67256;51.154;4.164;2023-07-13T08:04:51;21.10;65.70
76293;DHT22;67256;51.154;4.164;2023-07-13T08:07:17;21.30;65.70
76293;DHT22;67256;51.154;4.164;2023-07-13T08:09:42;21.50;65.20
76293;DHT22;67256;51.154;4.164;2023-07-13T08:12:08;21.50;65.00
76293;DHT22;67256;51.154;4.164;2023-07-13T08:14:34;21.70;64.60
76293;DHT22;67256;51.154;4.164;2023-07-13T08:17:00;21.80;63.70
76293;DHT22;67256;51.154;4.164;2023-07-13T08:19:26;21.80;63.80
76293;DHT22;67256;51.154;4.164;2023-07-13T08:21:51;21.90;63.50
76293;DHT22;67256;51.154;4.164;2023-07-13T08:24:17;22.00;63.00
76293;DHT22;67256;51.154;4.164;2023-07-13T08:26:44;21.80;62.50
76293;DHT22;67256;51.154;4.164;2023-07-13T08:29:11;22.00;62.90
76293;DHT22;67256;51.154;4.164;2023-07-13T08:31:37;22.20;62.70
76293;DHT22;67256;51.154;4.164;2023-07-13T08:34:03;22.40;62.50
76293;DHT22;67256;51.154;4.164;2023-07-13T08:36:29;22.40;61.40
76293;DHT22;67256;51.154;4.164;2023-07-13T08:38:55;22.40;61.20
76293;DHT22;67256;51.154;4.164;2023-07-13T08:41:22;22.50;61.30
76293;DHT22;67256;51.154;4.164;2023-07-13T08:43:55;22.60;61.00
76293;DHT22;67256;51.154;4.164;2023-07-13T08:46:37;22.60;60.70
76293;DHT22;67256;51.154;4.164;2023-07-13T08:49:10;22.50;60.50
76293;DHT22;67256;51.154;4.164;2023-07-13T08:54:42;22.30;61.70
76293;DHT22;67256;51.154;4.164;2023-07-13T08:57:16;22.30;61.10
76293;DHT22;67256;51.154;4.164;2023-07-13T08:59:43;22.30;60.40
76293;DHT22;67256;51.154;4.164;2023-07-13T09:02:39;22.20;61.60
76293;DHT22;67256;51.154;4.164;2023-07-13T09:05:15;22.30;61.10
76293;DHT22;67256;51.154;4.164;2023-07-13T09:10:11;22.40;59.00
76293;DHT22;67256;51.154;4.164;2023-07-13T09:15:37;22.20;59.10
76293;DHT22;67256;51.154;4.164;2023-07-13T09:18:33;21.90;58.90
76293;DHT22;67256;51.154;4.164;2023-07-13T09:21:05;21.90;59.10
76293;DHT22;67256;51.154;4.164;2023-07-13T09:23:35;21.70;59.20
76293;DHT22;67256;51.154;4.164;2023-07-13T09:26:11;21.80;59.40
76293;DHT22;67256;51.154;4.164;2023-07-13T09:28:50;21.60;60.20
76293;DHT22;67256;51.154;4.164;2023-07-13T09:31:34;21.60;60.20
76293;DHT22;67256;51.154;4.164;2023-07-13T09:34:02;21.80;59.70
76293;DHT22;67256;51.154;4.164;2023-07-13T09:36:31;21.70;60.00
76293;DHT22;67256;51.154;4.164;2023-07-13T09:41:49;22.10;58.30
76293;DHT22;67256;51.154;4.164;2023-07-13T09:44:18;22.10;57.70
76293;DHT22;67256;51.154;4.164;2023-07-13T09:46:54;22.20;57.60
76293;DHT22;67256;51.154;4.164;2023-07-13T09:49:42;22.20;57.60
76293;DHT22;67256;51.154;4.164;2023-07-13T09:52:15;22.30;57.90
76293;DHT22;67256;51.154;4.164;2023-07-13T09:54:45;22.30;55.70
76293;DHT22;67256;51.154;4.164;2023-07-13T09:57:19;22.30;54.90
76293;DHT22;67256;51.154;4.164;2023-07-13T09:59:50;22.50;55.00
76293;DHT22;67256;51.154;4.164;2023-07-13T10:02:33;22.60;54.90
76293;DHT22;67256;51.154;4.164;2023-07-13T10:05:10;22.70;54.50
76293;DHT22;67256;51.154;4.164;2023-07-13T10:07:42;22.80;54.70
76293;DHT22;67256;51.154;4.164;2023-07-13T10:10:21;22.80;54.00
76293;DHT22;67256;51.154;4.164;2023-07-13T10:12:47;23.00;54.10
76293;DHT22;67256;51.154;4.164;2023-07-13T10:15:20;23.00;53.70
76293;DHT22;67256;51.154;4.164;2023-07-13T10:17:46;23.00;53.60
76293;DHT22;67256;51.154;4.164;2023-07-13T10:20:14;23.00;53.90
76293;DHT22;67256;51.154;4.164;2023-07-13T10:25:18;23.00;51.30
76293;DHT22;67256;51.154;4.164;2023-07-13T10:27:45;22.80;52.00
76293;DHT22;67256;51.154;4.164;2023-07-13T10:30:24;22.70;52.30
76293;DHT22;67256;51.154;4.164;2023-07-13T10:32:53;22.80;53.00
76293;DHT22;67256;51.154;4.164;2023-07-13T10:35:21;22.80;52.10
76293;DHT22;67256;51.154;4.164;2023-07-13T10:37:54;22.90;51.20
76293;DHT22;67256;51.154;4.164;2023-07-13T10:40:42;23.10;51.50
76293;DHT22;67256;51.154;4.164;2023-07-13T10:43:19;23.30;49.30
76293;DHT22;67256;51.154;4.164;2023-07-13T10:45:46;23.30;49.70
76293;DHT22;67256;51.154;4.164;2023-07-13T10:48:16;23.30;49.90
76293;DHT22;67256;51.154;4.164;2023-07-13T10:50:44;23.50;50.10
76293;DHT22;67256;51.154;4.164;2023-07-13T10:53:32;23.60;49.60
76293;DHT22;67256;51.154;4.164;2023-07-13T10:56:01;23.70;49.00
76293;DHT22;67256;51.154;4.164;2023-07-13T10:58:40;23.60;48.70
76293;DHT22;67256;51.154;4.164;2023-07-13T11:06:16;23.40;49.90
76293;DHT22;67256;51.154;4.164;2023-07-13T11:11:32;21.20;75.90
76293;DHT22;67256;51.154;4.164;2023-07-13T11:14:01;20.20;79.30
76293;DHT22;67256;51.154;4.164;2023-07-13T11:16:37;19.80;76.80
76293;DHT22;67256;51.154;4.164;2023-07-13T11:21:29;19.40;79.50
76293;DHT22;67256;51.154;4.164;2023-07-13T11:24:14;19.20;80.60
76293;DHT22;67256;51.154;4.164;2023-07-13T11:31:58;18.90;82.80
76293;DHT22;67256;51.154;4.164;2023-07-13T11:34:31;19.10;83.50
76293;DHT22;67256;51.154;4.164;2023-07-13T11:36:58;19.20;84.90
76293;DHT22;67256;51.154;4.164;2023-07-13T11:39:33;19.30;82.80
76293;DHT22;67256;51.154;4.164;2023-07-13T11:42:02;19.40;82.10
76293;DHT22;67256;51.154;4.164;2023-07-13T11:44:30;19.60;82.70
76293;DHT22;67256;51.154;4.164;2023-07-13T11:47:07;20.00;83.50
76293;DHT22;67256;51.154;4.164;2023-07-13T11:49:45;20.40;82.70
76293;DHT22;67256;51.154;4.164;2023-07-13T11:52:17;20.70;76.40
76293;DHT22;67256;51.154;4.164;2023-07-13T11:54:52;20.90;80.90
76293;DHT22;67256;51.154;4.164;2023-07-13T11:57:37;21.10;77.20
76293;DHT22;67256;51.154;4.164;2023-07-13T12:00:13;21.40;74.80
76293;DHT22;67256;51.154;4.164;2023-07-13T12:02:46;21.60;73.50
76293;DHT22;67256;51.154;4.164;2023-07-13T12:05:16;21.70;75.90
76293;DHT22;67256;51.154;4.164;2023-07-13T12:07:51;21.90;72.30
76293;DHT22;67256;51.154;4.164;2023-07-13T12:10:21;22.20;73.70
76293;DHT22;67256;51.154;4.164;2023-07-13T12:15:21;22.50;72.20
76293;DHT22;67256;51.154;4.164;2023-07-13T12:17:48;22.40;71.00
76293;DHT22;67256;51.154;4.164;2023-07-13T12:20:24;22.40;70.30
76293;DHT22;67256;51.154;4.164;2023-07-13T12:22:50;22.50;70.20
76293;DHT22;67256;51.154;4.164;2023-07-13T12:25:16;22.60;70.20
76293;DHT22;67256;51.154;4.164;2023-07-13T12:27:47;22.60;71.10
76293;DHT22;67256;51.154;4.164;2023-07-13T12:30:30;22.80;69.70
76293;DHT22;67256;51.154;4.164;2023-07-13T12:33:07;23.00;68.00
76293;DHT22;67256;51.154;4.164;2023-07-13T12:35:40;23.20;68.60
76293;DHT22;67256;51.154;4.164;2023-07-13T12:38:10;23.30;68.90
76293;DHT22;67256;51.154;4.164;2023-07-13T12:40:36;23.20;66.40
76293;DHT22;67256;51.154;4.164;2023-07-13T12:43:03;23.30;68.80
76293;DHT22;67256;51.154;4.164;2023-07-13T12:45:33;23.30;67.10
76293;DHT22;67256;51.154;4.164;2023-07-13T12:48:04;23.20;67.80
76293;DHT22;67256;51.154;4.164;2023-07-13T12:50:37;23.30;67.90
76293;DHT22;67256;51.154;4.164;2023-07-13T12:53:05;23.50;67.70
76293;DHT22;67256;51.154;4.164;2023-07-13T12:55:50;23.60;67.00
76293;DHT22;67256;51.154;4.164;2023-07-13T12:58:25;23.70;66.60
76293;DHT22;67256;51.154;4.164;2023-07-13T13:00:55;23.80;65.70
76293;DHT22;67256;51.154;4.164;2023-07-13T13:06:06;23.90;66.80
76293;DHT22;67256;51.154;4.164;2023-07-13T13:08:34;23.90;67.00
76293;DHT22;67256;51.154;4.164;2023-07-13T13:11:01;23.90;65.40
76293;DHT22;67256;51.154;4.164;2023-07-13T13:13:27;23.90;68.00
76293;DHT22;67256;51.154;4.164;2023-07-13T13:15:53;24.10;67.50
76293;DHT22;67256;51.154;4.164;2023-07-13T13:18:21;24.00;65.80
76293;DHT22;67256;51.154;4.164;2023-07-13T13:20:48;23.90;65.60
76293;DHT22;67256;51.154;4.164;2023-07-13T13:23:17;24.00;66.10
76293;DHT22;67256;51.154;4.164;2023-07-13T13:25:44;23.90;65.10
76293;DHT22;67256;51.154;4.164;2023-07-13T13:28:15;24.00;65.80
76293;DHT22;67256;51.154;4.164;2023-07-13T13:30:42;24.10;66.30
76293;DHT22;67256;51.154;4.164;2023-07-13T13:33:13;24.10;65.40
76293;DHT22;67256;51.154;4.164;2023-07-13T13:35:41;24.30;64.90
76293;DHT22;67256;51.154;4.164;2023-07-13T13:38:15;24.30;62.00
76293;DHT22;67256;51.154;4.164;2023-07-13T13:40:43;24.40;61.40
76293;DHT22;67256;51.154;4.164;2023-07-13T13:43:24;24.30;59.00
76293;DHT22;67256;51.154;4.164;2023-07-13T13:45:55;24.10;62.20
76293;DHT22;67256;51.154;4.164;2023-07-13T13:48:29;24.00;61.50
76293;DHT22;67256;51.154;4.164;2023-07-13T13:50:57;24.00;60.70
76293;DHT22;67256;51.154;4.164;2023-07-13T13:53:23;23.90;61.70
76293;DHT22;67256;51.154;4.164;2023-07-13T13:55:50;23.90;61.10
76293;DHT22;67256;51.154;4.164;2023-07-13T13:58:16;23.80;61.30
76293;DHT22;67256;51.154;4.164;2023-07-13T14:00:41;23.80;61.50
76293;DHT22;67256;51.154;4.164;2023-07-13T14:03:21;23.80;62.10
76293;DHT22;67256;51.154;4.164;2023-07-13T14:05:48;23.80;60.90
76293;DHT22;67256;51.154;4.164;2023-07-13T14:08:19;23.80;61.50
76293;DHT22;67256;51.154;4.164;2023-07-13T14:10:48;23.90;61.50
76293;DHT22;67256;51.154;4.164;2023-07-13T14:13:22;23.80;61.20
76293;DHT22;67256;51.154;4.164;2023-07-13T14:15:52;23.80;60.20
76293;DHT22;67256;51.154;4.164;2023-07-13T14:18:18;23.80;59.70
76293;DHT22;67256;51.154;4.164;2023-07-13T14:20:48;23.80;59.90
76293;DHT22;67256;51.154;4.164;2023-07-13T14:23:17;23.90;60.40
76293;DHT22;67256;51.154;4.164;2023-07-13T14:25:45;23.90;59.50
76293;DHT22;67256;51.154;4.164;2023-07-13T14:30:44;23.80;59.80
76293;DHT22;67256;51.154;4.164;2023-07-13T14:33:12;23.90;61.20
76293;DHT22;67256;51.154;4.164;2023-07-13T14:35:38;23.90;60.00
76293;DHT22;67256;51.154;4.164;2023-07-13T14:38:05;23.90;59.90
76293;DHT22;67256;51.154;4.164;2023-07-13T14:40:31;23.90;59.60
76293;DHT22;67256;51.154;4.164;2023-07-13T14:42:58;23.90;60.40
76293;DHT22;67256;51.154;4.164;2023-07-13T14:45:24;23.80;60.80
76293;DHT22;67256;51.154;4.164;2023-07-13T14:47:50;23.80;61.30
76293;DHT22;67256;51.154;4.164;2023-07-13T14:50:19;23.80;61.30
76293;DHT22;67256;51.154;4.164;2023-07-13T14:52:46;23.90;60.30
76293;DHT22;67256;51.154;4.164;2023-07-13T14:55:15;24.10;59.90
76293;DHT22;67256;51.154;4.164;2023-07-13T14:57:41;24.30;58.70
76293;DHT22;67256;51.154;4.164;2023-07-13T15:00:18;24.20;58.20
76293;DHT22;67256;51.154;4.164;2023-07-13T15:02:47;24.40;59.00
76293;DHT22;67256;51.154;4.164;2023-07-13T15:05:20;24.30;57.80
76293;DHT22;67256;51.154;4.164;2023-07-13T15:07:47;24.50;57.50
76293;DHT22;67256;51.154;4.164;2023-07-13T15:10:15;24.60;56.70
76293;DHT22;67256;51.154;4.164;2023-07-13T15:12:41;24.50;56.70
76293;DHT22;67256;51.154;4.164;2023-07-13T15:15:07;24.60;56.80
76293;DHT22;67256;51.154;4.164;2023-07-13T15:17:37;24.60;56.90
76293;DHT22;67256;51.154;4.164;2023-07-13T15:22:44;24.50;56.80
76293;DHT22;67256;51.154;4.164;2023-07-13T15:25:17;24.40;57.20
76293;DHT22;67256;51.154;4.164;2023-07-13T15:27:43;24.40;57.20
76293;DHT22;67256;51.154;4.164;2023-07-13T15:30:10;24.50;57.70
76293;DHT22;67256;51.154;4.164;2023-07-13T15:32:35;24.50;57.40
76293;DHT22;67256;51.154;4.164;2023-07-13T15:35:01;24.60;57.40
76293;DHT22;67256;51.154;4.164;2023-07-13T15:37:27;24.60;55.50
76293;DHT22;67256;51.154;4.164;2023-07-13T15:39:53;24.50;55.20
76293;DHT22;67256;51.154;4.164;2023-07-13T15:42:20;24.50;56.40
76293;DHT22;67256;51.154;4.164;2023-07-13T15:44:47;24.70;55.40
76293;DHT22;67256;51.154;4.164;2023-07-13T15:47:14;24.80;55.00
76293;DHT22;67256;51.154;4.164;2023-07-13T15:49:40;24.90;54.60
76293;DHT22;67256;51.154;4.164;2023-07-13T15:52:18;24.90;53.10
76293;DHT22;67256;51.154;4.164;2023-07-13T15:54:45;24.90;52.60
76293;DHT22;67256;51.154;4.164;2023-07-13T15:57:12;24.80;52.20
76293;DHT22;67256;51.154;4.164;2023-07-13T15:59:39;24.50;52.10
76293;DHT22;67256;51.154;4.164;2023-07-13T16:02:18;24.30;52.40
76293;DHT22;67256;51.154;4.164;2023-07-13T16:04:45;24.20;52.30
76293;DHT22;67256;51.154;4.164;2023-07-13T16:07:13;24.30;54.10
76293;DHT22;67256;51.154;4.164;2023-07-13T16:09:40;24.40;55.60
76293;DHT22;67256;51.154;4.164;2023-07-13T16:12:14;24.60;54.30
76293;DHT22;67256;51.154;4.164;2023-07-13T16:14:40;24.50;52.20
76293;DHT22;67256;51.154;4.164;2023-07-13T16:17:11;24.50;51.90
76293;DHT22;67256;51.154;4.164;2023-07-13T16:19:38;24.50;47.90